AAL7181 MMUN-KJFK
Flight info
| Callsign | AAL7181 |
|---|---|
| Flight time | N/A |
| Altitude | 39000 |
| Route | ROTGI2A ROTGI UM219 MYDIA M219 KNOST Q109 DFENC DCT SAWED Q108 SIE CAMRN5 |
| Aircraft | B772/H-SDE1E3FGHIJ1J3J4J5M1P2RWXYZ/AA1DCD |
Departure
| Time | 2026-05-06 22:43 |
|---|---|
| Airport | Cancún International Airport (MMUN) |
Arrival
| Time | N/A |
|---|---|
| Airport | John F. Kennedy International Airport (KJFK) |
| Time | Latitude | Longitude | Altitude | Speed | Heading |
|---|---|---|---|---|---|
| 2026-05-06 22:01 | 21.04923 | -86.88190 | 55 ft | 0 kts | 159° |
| 2026-05-06 22:29 | 21.04925 | -86.88190 | 55 ft | 1 kts | 159° |
| 2026-05-06 22:29 | 21.04939 | -86.88196 | 55 ft | 2 kts | 159° |
| 2026-05-06 22:29 | 21.04953 | -86.88202 | 56 ft | 2 kts | 159° |
| 2026-05-06 22:30 | 21.04967 | -86.88208 | 56 ft | 2 kts | 159° |
| 2026-05-06 22:30 | 21.04981 | -86.88213 | 56 ft | 2 kts | 159° |
| 2026-05-06 22:30 | 21.04995 | -86.88219 | 56 ft | 2 kts | 159° |
| 2026-05-06 22:30 | 21.05009 | -86.88224 | 56 ft | 2 kts | 171° |
| 2026-05-06 22:31 | 21.05024 | -86.88225 | 56 ft | 2 kts | 191° |
| 2026-05-06 22:31 | 21.05038 | -86.88220 | 57 ft | 2 kts | 208° |
| 2026-05-06 22:31 | 21.05041 | -86.88218 | 57 ft | 0 kts | 213° |
| 2026-05-06 22:31 | 21.05016 | -86.88235 | 56 ft | 7 kts | 214° |
| 2026-05-06 22:32 | 21.04989 | -86.88254 | 56 ft | 2 kts | 214° |
| 2026-05-06 22:32 | 21.04987 | -86.88256 | 56 ft | 0 kts | 214° |
| 2026-05-06 22:32 | 21.04986 | -86.88256 | 56 ft | 0 kts | 214° |
| 2026-05-06 22:37 | 21.04982 | -86.88260 | 56 ft | 2 kts | 214° |
| 2026-05-06 22:38 | 21.04960 | -86.88276 | 55 ft | 5 kts | 214° |
| 2026-05-06 22:38 | 21.04920 | -86.88304 | 54 ft | 8 kts | 213° |
| 2026-05-06 22:38 | 21.04863 | -86.88343 | 53 ft | 10 kts | 213° |
| 2026-05-06 22:38 | 21.04792 | -86.88394 | 51 ft | 13 kts | 213° |
| 2026-05-06 22:39 | 21.04707 | -86.88454 | 50 ft | 15 kts | 213° |
| 2026-05-06 22:39 | 21.04610 | -86.88523 | 48 ft | 17 kts | 213° |
| 2026-05-06 22:39 | 21.04531 | -86.88580 | 46 ft | 11 kts | 214° |
| 2026-05-06 22:39 | 21.04474 | -86.88621 | 45 ft | 7 kts | 215° |
| 2026-05-06 22:40 | 21.04465 | -86.88673 | 45 ft | 8 kts | 290° |
| 2026-05-06 22:40 | 21.04498 | -86.88734 | 45 ft | 10 kts | 304° |
| 2026-05-06 22:40 | 21.04540 | -86.88799 | 46 ft | 11 kts | 304° |
| 2026-05-06 22:40 | 21.04584 | -86.88870 | 47 ft | 11 kts | 304° |
| 2026-05-06 22:41 | 21.04645 | -86.88985 | 48 ft | 5 kts | 265° |
| 2026-05-06 22:41 | 21.04618 | -86.89024 | 47 ft | 7 kts | 216° |
| 2026-05-06 22:41 | 21.04565 | -86.89060 | 47 ft | 9 kts | 212° |
| 2026-05-06 22:42 | 21.04515 | -86.89076 | 47 ft | 7 kts | 153° |
| 2026-05-06 22:42 | 21.04483 | -86.89023 | 46 ft | 9 kts | 121° |
| 2026-05-06 22:42 | 21.04473 | -86.89006 | 46 ft | 9 kts | 122° |
| 2026-05-06 22:42 | 21.04272 | -86.88687 | 43 ft | 91 kts | 123° |
| 2026-05-06 22:43 | 21.03783 | -86.87908 | 34 ft | 157 kts | 126° |
| 2026-05-06 22:43 | 21.03123 | -86.86881 | 547 ft | 165 kts | 123° |
| 2026-05-06 22:43 | 21.02527 | -86.85883 | 1318 ft | 161 kts | 123° |
| 2026-05-06 22:43 | 21.01911 | -86.84846 | 1678 ft | 173 kts | 123° |
| 2026-05-06 22:44 | 21.01387 | -86.83620 | 1970 ft | 192 kts | 105° |
| 2026-05-06 22:44 | 21.01363 | -86.82117 | 2263 ft | 217 kts | 80° |
| 2026-05-06 22:44 | 21.01832 | -86.80519 | 2776 ft | 234 kts | 75° |
| 2026-05-06 22:44 | 21.02356 | -86.78817 | 3360 ft | 248 kts | 76° |
| 2026-05-06 22:45 | 21.02874 | -86.77041 | 4101 ft | 256 kts | 76° |
| 2026-05-06 22:45 | 21.03401 | -86.75200 | 4749 ft | 265 kts | 75° |
| 2026-05-06 22:45 | 21.03945 | -86.73294 | 4961 ft | 269 kts | 75° |
| 2026-05-06 22:45 | 21.04674 | -86.71468 | 4960 ft | 268 kts | 57° |
| 2026-05-06 22:46 | 21.06042 | -86.70055 | 5128 ft | 285 kts | 39° |
| 2026-05-06 22:46 | 21.07637 | -86.68860 | 6142 ft | 280 kts | 37° |
| 2026-05-06 22:46 | 21.09261 | -86.67702 | 6773 ft | 283 kts | 34° |
| 2026-05-06 22:46 | 21.11107 | -86.66933 | 6949 ft | 289 kts | 11° |
| 2026-05-06 22:47 | 21.13120 | -86.66810 | 6969 ft | 289 kts | 3° |
| 2026-05-06 22:47 | 21.15129 | -86.66833 | 6974 ft | 287 kts | 2° |
| 2026-05-06 22:47 | 21.17130 | -86.66858 | 6977 ft | 287 kts | 2° |
| 2026-05-06 22:47 | 21.19132 | -86.66873 | 6973 ft | 287 kts | 2° |
| 2026-05-06 22:48 | 21.21137 | -86.66884 | 6974 ft | 287 kts | 2° |
| 2026-05-06 22:48 | 21.23146 | -86.66893 | 6973 ft | 288 kts | 2° |
| 2026-05-06 22:48 | 21.25155 | -86.66903 | 6980 ft | 291 kts | 2° |
| 2026-05-06 22:48 | 21.27223 | -86.66912 | 7650 ft | 296 kts | 2° |
| 2026-05-06 22:49 | 21.29237 | -86.66923 | 8570 ft | 289 kts | 3° |
| 2026-05-06 22:49 | 21.31254 | -86.66932 | 9248 ft | 292 kts | 3° |
| 2026-05-06 22:49 | 21.33286 | -86.66940 | 9935 ft | 293 kts | 3° |
| 2026-05-06 22:49 | 21.35351 | -86.66949 | 10456 ft | 303 kts | 3° |
| 2026-05-06 22:50 | 21.37518 | -86.66957 | 10814 ft | 319 kts | 2° |
| 2026-05-06 22:50 | 21.39798 | -86.66967 | 11194 ft | 335 kts | 2° |
| 2026-05-06 22:50 | 21.42181 | -86.66978 | 11583 ft | 350 kts | 2° |
| 2026-05-06 22:50 | 21.44672 | -86.66989 | 12003 ft | 364 kts | 2° |
| 2026-05-06 22:51 | 21.47259 | -86.67001 | 12471 ft | 377 kts | 2° |
| 2026-05-06 22:51 | 21.49902 | -86.67014 | 13144 ft | 383 kts | 1° |
| 2026-05-06 22:51 | 21.52577 | -86.67028 | 13902 ft | 387 kts | 2° |
| 2026-05-06 22:51 | 21.55286 | -86.67041 | 14656 ft | 392 kts | 1° |
| 2026-05-06 22:52 | 21.58030 | -86.67054 | 15431 ft | 396 kts | 2° |
| 2026-05-06 22:52 | 21.60794 | -86.67067 | 16211 ft | 401 kts | 2° |
| 2026-05-06 22:52 | 21.63599 | -86.67080 | 16959 ft | 406 kts | 2° |
| 2026-05-06 22:52 | 21.66436 | -86.67094 | 17710 ft | 410 kts | 1° |
| 2026-05-06 22:53 | 21.69310 | -86.67107 | 18408 ft | 417 kts | 1° |
| 2026-05-06 22:53 | 21.72227 | -86.67121 | 19091 ft | 423 kts | 1° |
| 2026-05-06 22:53 | 21.75193 | -86.67135 | 19761 ft | 429 kts | 1° |
| 2026-05-06 22:53 | 21.78199 | -86.67149 | 20466 ft | 434 kts | 1° |
| 2026-05-06 22:54 | 21.81238 | -86.67163 | 21128 ft | 440 kts | 1° |
| 2026-05-06 22:54 | 21.84316 | -86.67048 | 21784 ft | 445 kts | 7° |
| 2026-05-06 22:54 | 21.87376 | -86.66478 | 22444 ft | 449 kts | 13° |
| 2026-05-06 22:54 | 21.90447 | -86.65776 | 23142 ft | 454 kts | 13° |
| 2026-05-06 22:55 | 21.93547 | -86.65059 | 23867 ft | 458 kts | 13° |
| 2026-05-06 22:55 | 21.96677 | -86.64336 | 24542 ft | 462 kts | 12° |
| 2026-05-06 22:55 | 21.99839 | -86.63605 | 25172 ft | 467 kts | 12° |
| 2026-05-06 22:55 | 22.03035 | -86.62868 | 25778 ft | 473 kts | 11° |
| 2026-05-06 22:56 | 22.06268 | -86.62122 | 26395 ft | 477 kts | 11° |
| 2026-05-06 22:56 | 22.09534 | -86.61368 | 27002 ft | 481 kts | 11° |
| 2026-05-06 22:56 | 22.12818 | -86.60610 | 27594 ft | 485 kts | 11° |
| 2026-05-06 22:56 | 22.16138 | -86.59843 | 28170 ft | 489 kts | 11° |
| 2026-05-06 22:57 | 22.19478 | -86.59072 | 28721 ft | 494 kts | 10° |
| 2026-05-06 22:57 | 22.22850 | -86.58293 | 29303 ft | 497 kts | 10° |
| 2026-05-06 22:57 | 22.26228 | -86.57511 | 30072 ft | 496 kts | 10° |
| 2026-05-06 22:57 | 22.29576 | -86.56736 | 31012 ft | 490 kts | 10° |
| 2026-05-06 22:58 | 22.32881 | -86.55971 | 31933 ft | 484 kts | 10° |
| 2026-05-06 22:58 | 22.36158 | -86.55211 | 32749 ft | 480 kts | 10° |
| 2026-05-06 22:58 | 22.39415 | -86.54457 | 33536 ft | 478 kts | 10° |
| 2026-05-06 22:58 | 22.42661 | -86.53705 | 34311 ft | 476 kts | 9° |
| 2026-05-06 22:59 | 22.45950 | -86.52943 | 35078 ft | 474 kts | 9° |
| 2026-05-06 22:59 | 22.49223 | -86.52184 | 35795 ft | 471 kts | 9° |
| 2026-05-06 22:59 | 22.52481 | -86.51428 | 36405 ft | 470 kts | 9° |
| 2026-05-06 22:59 | 22.55722 | -86.50676 | 36874 ft | 471 kts | 9° |
| 2026-05-06 23:00 | 22.58946 | -86.49928 | 37322 ft | 472 kts | 9° |
| 2026-05-06 23:00 | 22.62163 | -86.49181 | 37796 ft | 472 kts | 9° |
| 2026-05-06 23:00 | 22.65370 | -86.48435 | 38290 ft | 470 kts | 9° |
| 2026-05-06 23:00 | 22.68566 | -86.47691 | 38748 ft | 469 kts | 9° |
| 2026-05-06 23:01 | 22.71764 | -86.46948 | 38973 ft | 472 kts | 9° |
| 2026-05-06 23:01 | 22.78184 | -86.45453 | 38969 ft | 470 kts | 9° |
| 2026-05-06 23:02 | 22.84557 | -86.43966 | 38971 ft | 468 kts | 9° |
| 2026-05-06 23:02 | 22.90940 | -86.42476 | 38970 ft | 469 kts | 9° |
| 2026-05-06 23:03 | 22.97329 | -86.40983 | 38970 ft | 470 kts | 9° |
| 2026-05-06 23:03 | 23.03725 | -86.39487 | 38970 ft | 470 kts | 9° |
| 2026-05-06 23:04 | 23.10127 | -86.37987 | 38972 ft | 469 kts | 9° |
| 2026-05-06 23:04 | 23.16528 | -86.36487 | 38972 ft | 469 kts | 9° |
| 2026-05-06 23:05 | 23.22912 | -86.34989 | 38977 ft | 468 kts | 9° |
| 2026-05-06 23:05 | 23.29280 | -86.33494 | 38978 ft | 468 kts | 9° |
| 2026-05-06 23:06 | 23.35662 | -86.31994 | 38986 ft | 469 kts | 9° |
| 2026-05-06 23:06 | 23.42052 | -86.30491 | 38987 ft | 469 kts | 9° |
| 2026-05-06 23:07 | 23.48442 | -86.28986 | 38987 ft | 470 kts | 9° |
| 2026-05-06 23:07 | 23.54836 | -86.27479 | 38987 ft | 470 kts | 9° |
| 2026-05-06 23:08 | 23.61233 | -86.25969 | 38983 ft | 470 kts | 9° |
| 2026-05-06 23:08 | 23.67619 | -86.24461 | 38984 ft | 469 kts | 9° |
| 2026-05-06 23:09 | 23.74005 | -86.22951 | 38986 ft | 469 kts | 9° |
| 2026-05-06 23:09 | 23.80389 | -86.21440 | 38986 ft | 470 kts | 9° |
| 2026-05-06 23:10 | 23.86782 | -86.19926 | 38986 ft | 469 kts | 9° |
| 2026-05-06 23:10 | 23.93186 | -86.18407 | 38986 ft | 470 kts | 9° |
| 2026-05-06 23:11 | 23.99590 | -86.16887 | 38984 ft | 470 kts | 9° |
| 2026-05-06 23:11 | 24.05813 | -86.14677 | 38979 ft | 475 kts | 24° |
| 2026-05-06 23:12 | 24.11620 | -86.11163 | 38987 ft | 478 kts | 27° |
| 2026-05-06 23:12 | 24.17393 | -86.07585 | 38986 ft | 476 kts | 26° |
| 2026-05-06 23:13 | 24.23165 | -86.04006 | 38988 ft | 477 kts | 26° |
| 2026-05-06 23:13 | 24.28945 | -86.00420 | 38990 ft | 478 kts | 26° |
| 2026-05-06 23:14 | 24.34721 | -85.96832 | 38996 ft | 477 kts | 26° |
| 2026-05-06 23:14 | 24.40499 | -85.93240 | 38992 ft | 477 kts | 26° |
| 2026-05-06 23:15 | 24.46265 | -85.89652 | 38999 ft | 477 kts | 26° |
| 2026-05-06 23:15 | 24.52040 | -85.86055 | 38997 ft | 477 kts | 26° |
| 2026-05-06 23:16 | 24.57807 | -85.82458 | 38999 ft | 477 kts | 26° |
| 2026-05-06 23:16 | 24.63578 | -85.78856 | 39006 ft | 477 kts | 26° |
| 2026-05-06 23:17 | 24.69345 | -85.75252 | 39004 ft | 477 kts | 26° |
| 2026-05-06 23:17 | 24.75127 | -85.71635 | 39008 ft | 479 kts | 26° |
| 2026-05-06 23:18 | 24.80905 | -85.68016 | 39009 ft | 477 kts | 26° |
| 2026-05-06 23:18 | 24.86672 | -85.64400 | 39005 ft | 477 kts | 26° |
| 2026-05-06 23:19 | 24.92440 | -85.60780 | 39008 ft | 477 kts | 26° |
| 2026-05-06 23:19 | 24.98203 | -85.57159 | 39009 ft | 477 kts | 26° |
| 2026-05-06 23:20 | 25.03970 | -85.53532 | 39007 ft | 477 kts | 26° |
| 2026-05-06 23:20 | 25.09740 | -85.49898 | 39016 ft | 479 kts | 26° |
| 2026-05-06 23:21 | 25.15524 | -85.46252 | 39012 ft | 478 kts | 26° |
| 2026-05-06 23:21 | 25.21292 | -85.42612 | 39017 ft | 478 kts | 26° |
| 2026-05-06 23:22 | 25.27069 | -85.38962 | 39019 ft | 478 kts | 26° |
| 2026-05-06 23:22 | 25.32942 | -85.35563 | 39012 ft | 472 kts | 16° |
| 2026-05-06 23:23 | 25.39265 | -85.33972 | 39013 ft | 464 kts | 2° |
| 2026-05-06 23:23 | 25.45700 | -85.33300 | 39008 ft | 464 kts | 1° |
| 2026-05-06 23:24 | 25.52127 | -85.32644 | 39010 ft | 464 kts | 1° |
| 2026-05-06 23:24 | 25.58561 | -85.31985 | 39012 ft | 464 kts | 1° |
| 2026-05-06 23:25 | 25.64991 | -85.31325 | 39020 ft | 463 kts | 1° |
| 2026-05-06 23:25 | 25.71407 | -85.30666 | 39020 ft | 463 kts | 1° |
| 2026-05-06 23:26 | 25.77834 | -85.30004 | 39022 ft | 463 kts | 1° |
| 2026-05-06 23:26 | 25.84245 | -85.29344 | 39023 ft | 463 kts | 1° |
| 2026-05-06 23:27 | 25.90665 | -85.28681 | 39019 ft | 463 kts | 1° |
| 2026-05-06 23:27 | 25.97083 | -85.28018 | 39019 ft | 464 kts | 1° |
| 2026-05-06 23:28 | 26.03516 | -85.27353 | 39021 ft | 464 kts | 1° |
| 2026-05-06 23:28 | 26.09933 | -85.26689 | 39021 ft | 463 kts | 1° |
| 2026-05-06 23:29 | 26.16362 | -85.26023 | 39023 ft | 463 kts | 1° |
| 2026-05-06 23:29 | 26.22775 | -85.25358 | 39023 ft | 463 kts | 1° |
| 2026-05-06 23:30 | 26.29201 | -85.24691 | 39023 ft | 463 kts | 1° |
| 2026-05-06 23:30 | 26.35642 | -85.24021 | 39023 ft | 464 kts | 1° |
| 2026-05-06 23:31 | 26.41992 | -85.22253 | 39030 ft | 475 kts | 15° |
| 2026-05-06 23:31 | 26.48209 | -85.19735 | 39024 ft | 475 kts | 15° |
| 2026-05-06 23:32 | 26.54410 | -85.17213 | 39026 ft | 475 kts | 15° |
| 2026-05-06 23:32 | 26.60612 | -85.14691 | 39026 ft | 474 kts | 15° |
| 2026-05-06 23:33 | 26.66798 | -85.12174 | 39027 ft | 473 kts | 15° |
| 2026-05-06 23:33 | 26.73007 | -85.09646 | 39025 ft | 474 kts | 15° |
| 2026-05-06 23:34 | 26.79195 | -85.07123 | 39027 ft | 473 kts | 15° |
| 2026-05-06 23:34 | 26.85385 | -85.04597 | 39027 ft | 474 kts | 15° |
| 2026-05-06 23:35 | 26.91595 | -85.02060 | 39027 ft | 476 kts | 15° |
| 2026-05-06 23:35 | 26.97819 | -84.99513 | 39027 ft | 475 kts | 15° |
| 2026-05-06 23:36 | 27.04027 | -84.96971 | 39028 ft | 476 kts | 15° |
| 2026-05-06 23:36 | 27.10256 | -84.94418 | 39028 ft | 476 kts | 15° |
| 2026-05-06 23:37 | 27.16463 | -84.91869 | 39031 ft | 475 kts | 15° |
| 2026-05-06 23:37 | 27.22674 | -84.89317 | 39031 ft | 474 kts | 15° |
| 2026-05-06 23:38 | 27.28869 | -84.86768 | 39031 ft | 474 kts | 15° |
| 2026-05-06 23:38 | 27.35056 | -84.84219 | 39031 ft | 474 kts | 14° |
| 2026-05-06 23:39 | 27.41240 | -84.81650 | 39026 ft | 475 kts | 17° |
| 2026-05-06 23:39 | 27.46963 | -84.77783 | 39032 ft | 489 kts | 35° |
| 2026-05-06 23:40 | 27.51488 | -84.71984 | 39029 ft | 502 kts | 54° |
| 2026-05-06 23:40 | 27.54517 | -84.64868 | 39032 ft | 508 kts | 63° |
| 2026-05-06 23:41 | 27.57253 | -84.57550 | 39035 ft | 508 kts | 63° |
| 2026-05-06 23:41 | 27.59993 | -84.50239 | 39035 ft | 508 kts | 63° |
| 2026-05-06 23:42 | 27.62733 | -84.42935 | 39036 ft | 508 kts | 63° |
| 2026-05-06 23:42 | 27.65478 | -84.35615 | 39036 ft | 509 kts | 63° |
| 2026-05-06 23:43 | 27.68236 | -84.28256 | 39025 ft | 509 kts | 64° |
| 2026-05-06 23:43 | 27.70984 | -84.20910 | 39025 ft | 509 kts | 63° |
| 2026-05-06 23:44 | 27.73723 | -84.13579 | 39026 ft | 509 kts | 63° |
| 2026-05-06 23:44 | 27.76459 | -84.06239 | 39026 ft | 508 kts | 63° |
| 2026-05-06 23:45 | 27.79190 | -83.98901 | 39028 ft | 509 kts | 63° |
| 2026-05-06 23:45 | 27.81923 | -83.91545 | 39030 ft | 509 kts | 63° |
| 2026-05-06 23:46 | 27.84647 | -83.84197 | 39028 ft | 508 kts | 63° |
| 2026-05-06 23:46 | 27.87369 | -83.76844 | 39032 ft | 509 kts | 63° |
| 2026-05-06 23:47 | 27.90087 | -83.69484 | 39033 ft | 508 kts | 63° |
| 2026-05-06 23:47 | 27.92802 | -83.62118 | 39031 ft | 509 kts | 63° |
| 2026-05-06 23:48 | 27.95520 | -83.54749 | 39033 ft | 508 kts | 61° |
| 2026-05-06 23:48 | 27.99169 | -83.48043 | 39031 ft | 498 kts | 44° |
| 2026-05-06 23:49 | 28.04180 | -83.42842 | 39030 ft | 485 kts | 27° |
| 2026-05-06 23:49 | 28.10066 | -83.39433 | 39030 ft | 468 kts | 12° |
| 2026-05-06 23:50 | 28.16246 | -83.37564 | 39040 ft | 462 kts | 6° |
| 2026-05-06 23:50 | 28.25610 | -83.34948 | 39037 ft | 463 kts | 7° |
| 2026-05-06 23:51 | 28.31414 | -83.33297 | 39026 ft | 464 kts | 7° |
| 2026-05-06 23:51 | 28.37591 | -83.31527 | 39025 ft | 465 kts | 7° |
| 2026-05-06 23:52 | 28.43855 | -83.29723 | 39026 ft | 464 kts | 7° |
| 2026-05-06 23:52 | 28.50121 | -83.27914 | 39027 ft | 464 kts | 7° |
| 2026-05-06 23:53 | 28.56376 | -83.26105 | 39028 ft | 464 kts | 7° |
| 2026-05-06 23:53 | 28.62317 | -83.24384 | 39024 ft | 465 kts | 7° |
| 2026-05-06 23:54 | 28.68513 | -83.22586 | 39024 ft | 466 kts | 7° |
| 2026-05-06 23:54 | 28.74797 | -83.20759 | 39022 ft | 465 kts | 7° |
| 2026-05-06 23:55 | 28.81080 | -83.18931 | 39026 ft | 466 kts | 7° |
| 2026-05-06 23:55 | 28.87362 | -83.17101 | 39022 ft | 465 kts | 6° |
| 2026-05-06 23:56 | 28.93661 | -83.15264 | 39019 ft | 468 kts | 7° |
| 2026-05-06 23:56 | 28.99979 | -83.13418 | 39029 ft | 467 kts | 6° |
| 2026-05-06 23:57 | 29.06304 | -83.11570 | 39027 ft | 470 kts | 6° |
| 2026-05-06 23:57 | 29.12566 | -83.09734 | 39028 ft | 466 kts | 6° |
| 2026-05-06 23:58 | 29.18713 | -83.07932 | 39028 ft | 467 kts | 6° |
| 2026-05-06 23:58 | 29.25042 | -83.06075 | 39029 ft | 467 kts | 6° |
| 2026-05-06 23:59 | 29.31348 | -83.04222 | 39028 ft | 468 kts | 6° |
| 2026-05-06 23:59 | 29.37669 | -83.02361 | 39024 ft | 467 kts | 6° |
| 2026-05-07 00:00 | 29.43979 | -83.00502 | 39023 ft | 468 kts | 6° |
| 2026-05-07 00:00 | 29.49250 | -82.98947 | 39021 ft | 467 kts | 6° |
| 2026-05-07 00:01 | 29.56595 | -82.96777 | 39026 ft | 467 kts | 6° |
| 2026-05-07 00:01 | 29.62928 | -82.94905 | 39020 ft | 469 kts | 6° |
| 2026-05-07 00:02 | 29.69249 | -82.93033 | 39026 ft | 468 kts | 6° |
| 2026-05-07 00:02 | 29.75576 | -82.91157 | 39030 ft | 469 kts | 6° |
| 2026-05-07 00:03 | 29.81907 | -82.89278 | 39031 ft | 469 kts | 6° |
| 2026-05-07 00:03 | 29.88247 | -82.87394 | 39030 ft | 469 kts | 6° |
| 2026-05-07 00:04 | 29.94606 | -82.85501 | 39027 ft | 470 kts | 6° |
| 2026-05-07 00:04 | 30.00973 | -82.83604 | 39025 ft | 471 kts | 6° |
| 2026-05-07 00:05 | 30.07353 | -82.81699 | 39031 ft | 470 kts | 6° |
| 2026-05-07 00:05 | 30.13610 | -82.79828 | 39031 ft | 469 kts | 6° |
| 2026-05-07 00:06 | 30.19905 | -82.77947 | 39034 ft | 472 kts | 5° |
| 2026-05-07 00:06 | 30.26278 | -82.76036 | 39021 ft | 471 kts | 5° |
| 2026-05-07 00:07 | 30.32639 | -82.74128 | 39015 ft | 471 kts | 5° |
| 2026-05-07 00:07 | 30.39025 | -82.72210 | 39008 ft | 472 kts | 5° |
| 2026-05-07 00:08 | 30.45384 | -82.70296 | 39007 ft | 470 kts | 5° |
| 2026-05-07 00:08 | 30.51752 | -82.68382 | 39001 ft | 472 kts | 4° |
| 2026-05-07 00:09 | 30.58137 | -82.66990 | 39002 ft | 464 kts | 0° |
| 2026-05-07 00:09 | 30.64539 | -82.65679 | 39004 ft | 469 kts | 1° |
| 2026-05-07 00:10 | 30.70976 | -82.64331 | 39001 ft | 467 kts | 1° |
| 2026-05-07 00:10 | 30.77392 | -82.62974 | 39002 ft | 469 kts | 1° |
| 2026-05-07 00:11 | 30.83865 | -82.61598 | 39000 ft | 470 kts | 1° |
| 2026-05-07 00:11 | 30.90315 | -82.60218 | 39003 ft | 467 kts | 1° |
| 2026-05-07 00:12 | 30.96780 | -82.58838 | 39004 ft | 473 kts | 1° |
| 2026-05-07 00:12 | 31.03236 | -82.57449 | 39004 ft | 469 kts | 1° |
| 2026-05-07 00:13 | 31.09625 | -82.55563 | 39004 ft | 483 kts | 13° |
| 2026-05-07 00:13 | 31.15634 | -82.52101 | 39003 ft | 492 kts | 18° |
| 2026-05-07 00:14 | 31.21597 | -82.48470 | 39006 ft | 494 kts | 18° |
| 2026-05-07 00:14 | 31.27709 | -82.44747 | 39008 ft | 493 kts | 18° |
| 2026-05-07 00:15 | 31.33311 | -82.41334 | 39006 ft | 492 kts | 18° |
| 2026-05-07 00:15 | 31.39397 | -82.37621 | 39007 ft | 491 kts | 18° |
| 2026-05-07 00:16 | 31.45323 | -82.34004 | 38983 ft | 491 kts | 19° |
| 2026-05-07 00:16 | 31.51474 | -82.30246 | 38981 ft | 495 kts | 19° |
| 2026-05-07 00:17 | 31.57529 | -82.26535 | 38978 ft | 489 kts | 19° |
| 2026-05-07 00:17 | 31.63595 | -82.22820 | 38980 ft | 495 kts | 19° |
| 2026-05-07 00:18 | 31.69702 | -82.19069 | 38973 ft | 492 kts | 19° |
| 2026-05-07 00:18 | 31.75746 | -82.15350 | 38971 ft | 491 kts | 18° |
| 2026-05-07 00:19 | 31.81800 | -82.11623 | 38973 ft | 490 kts | 18° |
| 2026-05-07 00:19 | 31.87833 | -82.07903 | 38973 ft | 493 kts | 18° |
| 2026-05-07 00:20 | 31.93933 | -82.04136 | 38970 ft | 492 kts | 19° |
| 2026-05-07 00:20 | 32.00007 | -82.00378 | 38974 ft | 492 kts | 18° |
| 2026-05-07 00:21 | 32.06078 | -81.96616 | 38984 ft | 492 kts | 18° |
| 2026-05-07 00:21 | 32.12112 | -81.92866 | 38984 ft | 496 kts | 20° |
| 2026-05-07 00:22 | 32.17580 | -81.88051 | 38995 ft | 503 kts | 33° |
| 2026-05-07 00:22 | 32.22677 | -81.82562 | 38994 ft | 512 kts | 34° |
| 2026-05-07 00:23 | 32.27950 | -81.76850 | 38993 ft | 512 kts | 34° |
| 2026-05-07 00:23 | 32.33197 | -81.71156 | 38994 ft | 509 kts | 34° |
| 2026-05-07 00:24 | 32.38424 | -81.65479 | 38992 ft | 508 kts | 33° |
| 2026-05-07 00:24 | 32.43648 | -81.59800 | 38996 ft | 512 kts | 33° |
| 2026-05-07 00:25 | 32.48864 | -81.54114 | 38998 ft | 506 kts | 33° |
| 2026-05-07 00:25 | 32.54118 | -81.48383 | 39006 ft | 510 kts | 33° |
| 2026-05-07 00:26 | 32.59367 | -81.42645 | 39006 ft | 509 kts | 33° |
| 2026-05-07 00:26 | 32.64576 | -81.36940 | 38998 ft | 508 kts | 33° |
| 2026-05-07 00:27 | 32.69741 | -81.31279 | 38980 ft | 510 kts | 33° |
| 2026-05-07 00:27 | 32.74959 | -81.25548 | 38976 ft | 512 kts | 33° |
| 2026-05-07 00:28 | 32.80207 | -81.19773 | 38971 ft | 512 kts | 33° |
| 2026-05-07 00:28 | 32.85441 | -81.14004 | 38973 ft | 513 kts | 34° |
| 2026-05-07 00:29 | 32.90693 | -81.08203 | 38970 ft | 510 kts | 33° |
| 2026-05-07 00:30 | 33.01075 | -80.96709 | 38970 ft | 506 kts | 33° |
| 2026-05-07 00:30 | 33.06276 | -80.90944 | 38979 ft | 514 kts | 33° |
| 2026-05-07 00:31 | 33.11453 | -80.85186 | 38972 ft | 510 kts | 32° |
| 2026-05-07 00:31 | 33.16510 | -80.79556 | 38976 ft | 512 kts | 32° |
| 2026-05-07 00:32 | 33.21608 | -80.73874 | 38976 ft | 515 kts | 32° |
| 2026-05-07 00:32 | 33.26837 | -80.68028 | 38982 ft | 511 kts | 32° |
| 2026-05-07 00:33 | 33.32014 | -80.62234 | 38987 ft | 510 kts | 32° |
| 2026-05-07 00:33 | 33.37235 | -80.56385 | 38990 ft | 515 kts | 32° |
| 2026-05-07 00:34 | 33.42454 | -80.50522 | 38979 ft | 513 kts | 32° |
| 2026-05-07 00:34 | 33.47422 | -80.44242 | 38959 ft | 526 kts | 44° |
| 2026-05-07 00:35 | 33.49409 | -80.40500 | 38999 ft | 537 kts | 51° |
| 2026-05-07 00:35 | 33.51223 | -80.36543 | 38980 ft | 543 kts | 52° |
| 2026-05-07 00:35 | 33.54742 | -80.28697 | 38965 ft | 543 kts | 53° |
| 2026-05-07 00:36 | 33.58317 | -80.20694 | 38963 ft | 541 kts | 53° |
| 2026-05-07 00:36 | 33.61889 | -80.12690 | 38967 ft | 546 kts | 53° |
| 2026-05-07 00:37 | 33.65460 | -80.04662 | 38971 ft | 543 kts | 53° |
| 2026-05-07 00:37 | 33.69033 | -79.96616 | 38966 ft | 549 kts | 53° |
| 2026-05-07 00:38 | 33.72612 | -79.88525 | 38967 ft | 544 kts | 52° |
| 2026-05-07 00:38 | 33.76174 | -79.80466 | 38964 ft | 549 kts | 52° |
| 2026-05-07 00:39 | 33.79747 | -79.72356 | 38967 ft | 544 kts | 52° |
| 2026-05-07 00:39 | 33.83283 | -79.64313 | 38978 ft | 544 kts | 53° |
| 2026-05-07 00:40 | 33.86835 | -79.56217 | 38965 ft | 544 kts | 53° |
| 2026-05-07 00:40 | 33.90344 | -79.48206 | 38978 ft | 541 kts | 53° |
| 2026-05-07 00:41 | 33.93860 | -79.40170 | 38964 ft | 541 kts | 53° |
| 2026-05-07 00:41 | 33.97333 | -79.32217 | 38951 ft | 548 kts | 53° |
| 2026-05-07 00:42 | 34.00863 | -79.24101 | 38958 ft | 542 kts | 53° |
| 2026-05-07 00:42 | 34.04389 | -79.16081 | 38965 ft | 538 kts | 50° |
| 2026-05-07 00:43 | 34.08302 | -79.08380 | 38952 ft | 543 kts | 49° |
| 2026-05-07 00:43 | 34.12149 | -79.00815 | 38963 ft | 535 kts | 48° |
| 2026-05-07 00:44 | 34.15926 | -78.93343 | 38968 ft | 535 kts | 49° |
| 2026-05-07 00:44 | 34.19646 | -78.85952 | 38979 ft | 538 kts | 48° |
| 2026-05-07 00:45 | 34.23529 | -78.78135 | 38994 ft | 537 kts | 49° |
| 2026-05-07 00:45 | 34.27373 | -78.70380 | 38990 ft | 538 kts | 49° |
| 2026-05-07 00:46 | 34.31260 | -78.62703 | 38971 ft | 531 kts | 43° |
| 2026-05-07 00:46 | 34.36143 | -78.56259 | 38987 ft | 514 kts | 27° |
| 2026-05-07 00:47 | 34.41680 | -78.50959 | 38985 ft | 498 kts | 25° |
| 2026-05-07 00:47 | 34.47096 | -78.45847 | 38981 ft | 497 kts | 24° |
| 2026-05-07 00:48 | 34.52580 | -78.40668 | 38982 ft | 502 kts | 25° |
| 2026-05-07 00:48 | 34.58082 | -78.35447 | 38979 ft | 500 kts | 24° |
| 2026-05-07 00:49 | 34.63474 | -78.30320 | 38948 ft | 499 kts | 25° |
| 2026-05-07 00:49 | 34.68956 | -78.25102 | 38953 ft | 499 kts | 25° |
| 2026-05-07 00:50 | 34.74392 | -78.19913 | 38954 ft | 499 kts | 25° |
| 2026-05-07 00:50 | 34.79879 | -78.14674 | 38955 ft | 501 kts | 25° |
| 2026-05-07 00:51 | 34.85355 | -78.09432 | 38971 ft | 504 kts | 25° |
| 2026-05-07 00:51 | 34.90811 | -78.04214 | 38979 ft | 497 kts | 24° |
| 2026-05-07 00:52 | 34.96303 | -77.98979 | 38961 ft | 504 kts | 24° |
| 2026-05-07 00:52 | 35.01786 | -77.93727 | 38952 ft | 500 kts | 25° |
| 2026-05-07 00:53 | 35.07277 | -77.88465 | 38961 ft | 504 kts | 25° |
| 2026-05-07 00:53 | 35.12648 | -77.83302 | 38972 ft | 502 kts | 25° |
| 2026-05-07 00:54 | 35.17870 | -77.78275 | 38973 ft | 498 kts | 25° |
| 2026-05-07 00:54 | 35.23335 | -77.73008 | 38979 ft | 499 kts | 24° |
| 2026-05-07 00:55 | 35.28824 | -77.67714 | 38972 ft | 505 kts | 25° |
| 2026-05-07 00:55 | 35.34318 | -77.62394 | 38971 ft | 500 kts | 25° |
| 2026-05-07 00:56 | 35.39766 | -77.57114 | 38979 ft | 500 kts | 24° |
| 2026-05-07 00:56 | 35.45220 | -77.51822 | 38973 ft | 501 kts | 25° |
| 2026-05-07 00:57 | 35.50685 | -77.46511 | 38970 ft | 505 kts | 25° |
| 2026-05-07 00:57 | 35.56130 | -77.41196 | 38966 ft | 495 kts | 24° |
| 2026-05-07 00:58 | 35.61529 | -77.35933 | 38977 ft | 500 kts | 24° |
| 2026-05-07 00:58 | 35.66940 | -77.30644 | 38939 ft | 500 kts | 25° |
| 2026-05-07 00:59 | 35.75118 | -77.22628 | 38938 ft | 499 kts | 25° |
| 2026-05-07 01:00 | 35.80582 | -77.17266 | 38937 ft | 505 kts | 26° |
| 2026-05-07 01:00 | 35.86023 | -77.11906 | 38939 ft | 501 kts | 25° |
| 2026-05-07 01:01 | 35.91501 | -77.06552 | 38940 ft | 497 kts | 22° |
| 2026-05-07 01:01 | 35.97288 | -77.02136 | 38926 ft | 488 kts | 16° |
| 2026-05-07 01:02 | 36.03065 | -76.97937 | 38933 ft | 481 kts | 16° |
| 2026-05-07 01:02 | 36.08886 | -76.93706 | 38931 ft | 486 kts | 16° |
| 2026-05-07 01:03 | 36.14255 | -76.89779 | 38938 ft | 481 kts | 16° |
| 2026-05-07 01:03 | 36.20117 | -76.85500 | 38945 ft | 489 kts | 17° |
| 2026-05-07 01:04 | 36.25913 | -76.81240 | 38943 ft | 482 kts | 16° |
| 2026-05-07 01:04 | 36.31661 | -76.77015 | 38941 ft | 480 kts | 16° |
| 2026-05-07 01:05 | 36.37480 | -76.72742 | 38936 ft | 490 kts | 16° |
| 2026-05-07 01:05 | 36.43325 | -76.68427 | 38936 ft | 487 kts | 16° |
| 2026-05-07 01:06 | 36.49077 | -76.64169 | 38936 ft | 481 kts | 16° |
| 2026-05-07 01:06 | 36.54855 | -76.59896 | 38949 ft | 481 kts | 16° |
| 2026-05-07 01:07 | 36.60632 | -76.55618 | 38952 ft | 487 kts | 16° |
| 2026-05-07 01:07 | 36.66428 | -76.51312 | 38946 ft | 487 kts | 16° |
| 2026-05-07 01:08 | 36.72194 | -76.47017 | 38945 ft | 481 kts | 17° |
| 2026-05-07 01:08 | 36.77964 | -76.42720 | 38942 ft | 486 kts | 17° |
| 2026-05-07 01:09 | 36.83735 | -76.38407 | 38931 ft | 483 kts | 16° |
| 2026-05-07 01:09 | 36.89555 | -76.34062 | 38917 ft | 492 kts | 18° |
| 2026-05-07 01:10 | 36.95367 | -76.29698 | 38901 ft | 485 kts | 17° |
| 2026-05-07 01:10 | 37.01139 | -76.25365 | 38904 ft | 486 kts | 18° |
| 2026-05-07 01:11 | 37.06986 | -76.20973 | 38897 ft | 491 kts | 17° |
| 2026-05-07 01:11 | 37.12512 | -76.16800 | 38912 ft | 483 kts | 17° |
| 2026-05-07 01:12 | 37.18359 | -76.12399 | 38908 ft | 495 kts | 17° |
| 2026-05-07 01:12 | 37.24162 | -76.08002 | 38901 ft | 488 kts | 17° |
| 2026-05-07 01:13 | 37.29969 | -76.03602 | 38887 ft | 488 kts | 18° |
| 2026-05-07 01:13 | 37.35847 | -75.99150 | 38904 ft | 498 kts | 18° |
| 2026-05-07 01:14 | 37.41720 | -75.94676 | 38897 ft | 490 kts | 17° |
| 2026-05-07 01:14 | 37.47575 | -75.90220 | 38900 ft | 495 kts | 17° |
| 2026-05-07 01:15 | 37.53444 | -75.85738 | 38906 ft | 492 kts | 17° |
| 2026-05-07 01:15 | 37.59315 | -75.81333 | 38908 ft | 493 kts | 17° |
| 2026-05-07 01:16 | 37.65218 | -75.76918 | 38909 ft | 493 kts | 17° |
| 2026-05-07 01:16 | 37.71144 | -75.72477 | 38907 ft | 499 kts | 17° |
| 2026-05-07 01:17 | 37.77094 | -75.67997 | 38901 ft | 493 kts | 17° |
| 2026-05-07 01:17 | 37.82924 | -75.63600 | 38907 ft | 490 kts | 17° |
| 2026-05-07 01:18 | 37.88715 | -75.58877 | 38909 ft | 501 kts | 21° |
| 2026-05-07 01:18 | 37.94443 | -75.53824 | 38913 ft | 500 kts | 21° |
| 2026-05-07 01:19 | 38.00176 | -75.48791 | 38918 ft | 506 kts | 21° |
| 2026-05-07 01:19 | 38.05943 | -75.43731 | 38916 ft | 503 kts | 20° |
| 2026-05-07 01:20 | 38.11705 | -75.39007 | 38919 ft | 501 kts | 19° |
| 2026-05-07 01:21 | 38.22331 | -75.30486 | 38890 ft | 488 kts | 14° |
| 2026-05-07 01:21 | 38.25357 | -75.28727 | 38892 ft | 477 kts | 6° |
| 2026-05-07 01:21 | 38.28481 | -75.27495 | 38889 ft | 465 kts | 359° |
| 2026-05-07 01:22 | 38.34737 | -75.26072 | 38880 ft | 451 kts | 355° |
| 2026-05-07 01:22 | 38.37789 | -75.25429 | 38583 ft | 441 kts | 354° |
| 2026-05-07 01:22 | 38.40813 | -75.24803 | 37560 ft | 447 kts | 354° |
| 2026-05-07 01:22 | 38.43911 | -75.24169 | 36190 ft | 461 kts | 355° |
| 2026-05-07 01:23 | 38.47092 | -75.23510 | 35163 ft | 466 kts | 356° |
| 2026-05-07 01:23 | 38.50268 | -75.22838 | 34889 ft | 459 kts | 356° |
| 2026-05-07 01:23 | 38.53439 | -75.22177 | 34888 ft | 469 kts | 356° |
| 2026-05-07 01:24 | 38.59893 | -75.20822 | 34879 ft | 468 kts | 356° |
| 2026-05-07 01:24 | 38.66360 | -75.19377 | 34881 ft | 485 kts | 1° |
| 2026-05-07 01:24 | 38.69612 | -75.18060 | 34880 ft | 496 kts | 9° |
| 2026-05-07 01:25 | 38.72724 | -75.16115 | 34877 ft | 501 kts | 18° |
| 2026-05-07 01:25 | 38.75628 | -75.13584 | 34882 ft | 514 kts | 25° |
| 2026-05-07 01:25 | 38.78509 | -75.10765 | 34881 ft | 528 kts | 26° |
| 2026-05-07 01:26 | 38.84331 | -75.04997 | 34884 ft | 527 kts | 26° |
| 2026-05-07 01:26 | 38.87200 | -75.02149 | 34700 ft | 518 kts | 27° |
| 2026-05-07 01:26 | 38.90047 | -74.99332 | 33777 ft | 522 kts | 26° |
| 2026-05-07 01:26 | 38.92953 | -74.96470 | 32438 ft | 536 kts | 27° |
| 2026-05-07 01:27 | 38.95930 | -74.93539 | 31160 ft | 547 kts | 28° |
| 2026-05-07 01:27 | 38.98944 | -74.90561 | 30219 ft | 549 kts | 29° |
| 2026-05-07 01:27 | 39.01936 | -74.87592 | 29722 ft | 540 kts | 28° |
| 2026-05-07 01:27 | 39.04887 | -74.84663 | 29203 ft | 533 kts | 29° |
| 2026-05-07 01:28 | 39.07801 | -74.81770 | 28643 ft | 527 kts | 28° |
| 2026-05-07 01:28 | 39.10682 | -74.78896 | 28061 ft | 524 kts | 30° |
| 2026-05-07 01:28 | 39.13176 | -74.76235 | 27554 ft | 521 kts | 31° |
| 2026-05-07 01:28 | 39.15829 | -74.73347 | 27000 ft | 517 kts | 32° |
| 2026-05-07 01:29 | 39.18736 | -74.70181 | 26406 ft | 512 kts | 31° |
| 2026-05-07 01:29 | 39.21409 | -74.67273 | 25858 ft | 508 kts | 31° |
| 2026-05-07 01:29 | 39.24092 | -74.64355 | 25317 ft | 503 kts | 31° |
| 2026-05-07 01:29 | 39.26692 | -74.61528 | 24777 ft | 499 kts | 31° |
| 2026-05-07 01:30 | 39.29343 | -74.58646 | 24247 ft | 495 kts | 31° |
| 2026-05-07 01:30 | 39.31964 | -74.55795 | 23701 ft | 491 kts | 31° |
| 2026-05-07 01:30 | 39.34562 | -74.52969 | 23164 ft | 488 kts | 31° |
| 2026-05-07 01:30 | 39.37147 | -74.50155 | 22619 ft | 485 kts | 32° |
| 2026-05-07 01:31 | 39.39711 | -74.47362 | 22070 ft | 482 kts | 32° |
| 2026-05-07 01:31 | 39.42261 | -74.44581 | 21510 ft | 479 kts | 32° |
| 2026-05-07 01:31 | 39.44790 | -74.41821 | 20977 ft | 475 kts | 32° |
| 2026-05-07 01:31 | 39.47300 | -74.39079 | 20443 ft | 472 kts | 32° |
| 2026-05-07 01:32 | 39.49795 | -74.36351 | 19879 ft | 469 kts | 33° |
| 2026-05-07 01:32 | 39.52245 | -74.33669 | 19286 ft | 466 kts | 33° |
| 2026-05-07 01:32 | 39.54701 | -74.30980 | 18737 ft | 462 kts | 34° |
| 2026-05-07 01:32 | 39.57142 | -74.28303 | 18156 ft | 458 kts | 34° |
| 2026-05-07 01:33 | 39.59527 | -74.25681 | 17863 ft | 440 kts | 34° |
| 2026-05-07 01:33 | 39.61814 | -74.23165 | 17880 ft | 431 kts | 34° |
| 2026-05-07 01:33 | 39.64107 | -74.20650 | 17861 ft | 433 kts | 34° |
| 2026-05-07 01:33 | 39.66402 | -74.18128 | 17862 ft | 433 kts | 34° |
| 2026-05-07 01:34 | 39.68695 | -74.15604 | 17862 ft | 432 kts | 33° |
| 2026-05-07 01:34 | 39.70977 | -74.13089 | 17856 ft | 430 kts | 34° |
| 2026-05-07 01:34 | 39.75643 | -74.07941 | 17869 ft | 431 kts | 34° |
| 2026-05-07 01:35 | 39.77924 | -74.05420 | 17873 ft | 432 kts | 34° |
| 2026-05-07 01:35 | 39.80210 | -74.02892 | 17876 ft | 432 kts | 34° |